Back to Top

Language: 

My Weather Underground Personal Weather Station Historical Data with Graphs...

Delerius Weather Station Historical Data
Daily Summary for January 18, 2018 Units:  English    Metric   Both
« Previous Day
Next Day »
Daily Weekly Monthly Yearly Custom
  High: Low: Average:
Temperature: 46.2 °F 34.9 °F 38.4 °F
Dew Point: 43.7 °F 33.3 °F 36.2 °F
Humidity: 97 % 86 % 92 %
Wind Speed: 28.0 mph 0.0 mph 8.9 mph
Wind Gust: 43.0 mph - -
Wind:- - West
Pressure: 29.62 in 28.93 in -
Precipitation: 0.14 in    
Historical Graphs
 
 
Tabular Data for January 18, 2018
Time Temperature Dew Point Pressure Wind Wind Speed Wind Gust Humidity Rainfall Rate (Hourly) solar Conditions
00:02 34.9 °F 33.6 °F 29.17 in South 6.0 mph 10.0 mph 95 % 0.03 in 0 W/m2
00:07 35.1 °F 33.8 °F 29.17 in South 7.0 mph 16.0 mph 95 % 0.04 in 0 W/m2
00:12 35.2 °F 34.0 °F 29.16 in South 8.0 mph 14.0 mph 95 % 0.04 in 0 W/m2
00:17 35.4 °F 34.4 °F 29.15 in South 8.0 mph 14.0 mph 96 % 0.04 in 0 W/m2
00:22 35.8 °F 34.8 °F 29.13 in South 8.0 mph 13.0 mph 96 % 0.03 in 0 W/m2
00:27 36.0 °F 34.9 °F 29.13 in SSW 8.0 mph 13.0 mph 96 % 0.03 in 0 W/m2
00:32 36.3 °F 35.3 °F 29.11 in South 8.0 mph 14.0 mph 96 % 0.03 in 0 W/m2
00:37 36.5 °F 35.5 °F 29.10 in South 7.0 mph 12.0 mph 96 % 0.02 in 0 W/m2
00:42 36.7 °F 35.6 °F 29.09 in South 9.0 mph 13.0 mph 96 % 0.03 in 0 W/m2
00:47 37.0 °F 36.0 °F 29.08 in SSW 8.0 mph 14.0 mph 96 % 0.02 in 0 W/m2
00:52 37.2 °F 36.2 °F 29.08 in SSW 8.0 mph 14.0 mph 96 % 0.02 in 0 W/m2
00:57 37.4 °F 36.4 °F 29.07 in SSW 5.0 mph 9.0 mph 96 % 0.03 in 0 W/m2
01:02 37.6 °F 36.5 °F 29.06 in SSW 8.0 mph 14.0 mph 96 % 0.03 in 0 W/m2
01:07 38.5 °F 37.4 °F 29.05 in SW 9.0 mph 21.0 mph 96 % 0.03 in 0 W/m2
01:12 39.0 °F 38.2 °F 29.05 in SW 11.0 mph 19.0 mph 97 % 0.02 in 0 W/m2
01:17 39.6 °F 38.8 °F 29.04 in SW 11.0 mph 15.0 mph 97 % 0.03 in 0 W/m2
01:22 39.9 °F 39.1 °F 29.04 in SW 9.0 mph 15.0 mph 97 % 0.03 in 0 W/m2
01:27 40.3 °F 39.2 °F 29.04 in WSW 9.0 mph 13.0 mph 96 % 0.03 in 0 W/m2
01:32 41.4 °F 40.6 °F 29.03 in WSW 18.0 mph 35.0 mph 97 % 0.04 in 0 W/m2
01:37 43.0 °F 42.2 °F 29.02 in West 18.0 mph 28.0 mph 97 % 0.04 in 0 W/m2
01:43 43.9 °F 43.1 °F 29.02 in West 17.0 mph 27.0 mph 97 % 0.03 in 0 W/m2
01:48 44.4 °F 43.4 °F 29.02 in West 18.0 mph 28.0 mph 96 % 0.04 in 0 W/m2
01:53 44.8 °F 43.4 °F 29.02 in WSW 18.0 mph 28.0 mph 95 % 0.04 in 0 W/m2
01:58 45.3 °F 43.7 °F 29.00 in West 22.0 mph 31.0 mph 94 % 0.03 in 0 W/m2
02:03 45.5 °F 43.6 °F 29.00 in West 19.0 mph 29.0 mph 93 % 0.03 in 0 W/m2
02:08 45.7 °F 43.5 °F 28.99 in West 20.0 mph 32.0 mph 92 % 0.02 in 0 W/m2
02:13 45.9 °F 43.7 °F 28.99 in WSW 20.0 mph 33.0 mph 92 % 0.03 in 0 W/m2
02:18 46.0 °F 43.6 °F 28.98 in WSW 22.0 mph 29.0 mph 91 % 0.02 in 0 W/m2
02:23 46.2 °F 43.4 °F 28.98 in West 19.0 mph 27.0 mph 90 % 0.02 in 0 W/m2
02:28 46.2 °F 43.4 °F 28.99 in West 23.0 mph 35.0 mph 90 % 0.02 in 0 W/m2
02:33 46.0 °F 43.3 °F 28.98 in West 20.0 mph 32.0 mph 90 % 0.02 in 0 W/m2
02:38 46.0 °F 43.3 °F 28.98 in West 20.0 mph 28.0 mph 90 % 0.02 in 0 W/m2
02:43 46.0 °F 43.0 °F 28.97 in West 20.0 mph 31.0 mph 89 % 0.02 in 0 W/m2
02:48 46.2 °F 42.9 °F 28.97 in West 23.0 mph 41.0 mph 88 % 0.02 in 0 W/m2
02:53 46.2 °F 42.6 °F 28.96 in WSW 20.0 mph 31.0 mph 87 % 0.02 in 0 W/m2
02:58 46.0 °F 42.7 °F 28.96 in WSW 19.0 mph 37.0 mph 88 % 0.02 in 0 W/m2
03:03 45.9 °F 42.5 °F 28.96 in WSW 21.0 mph 31.0 mph 88 % 0.02 in 0 W/m2
03:08 45.7 °F 42.6 °F 28.95 in WSW 21.0 mph 30.0 mph 89 % 0.02 in 0 W/m2
03:13 45.7 °F 42.6 °F 28.95 in WSW 20.0 mph 28.0 mph 89 % 0.01 in 0 W/m2
03:18 45.7 °F 42.6 °F 28.94 in WSW 19.0 mph 28.0 mph 89 % 0.02 in 0 W/m2
03:23 45.7 °F 42.6 °F 28.94 in WSW 25.0 mph 36.0 mph 89 % 0.02 in 0 W/m2
03:28 45.7 °F 42.3 °F 28.93 in WSW 22.0 mph 35.0 mph 88 % 0.02 in 0 W/m2
03:33 45.7 °F 42.0 °F 28.94 in West 28.0 mph 41.0 mph 87 % 0.01 in 0 W/m2
03:38 45.7 °F 41.7 °F 28.95 in West 27.0 mph 43.0 mph 86 % 0.01 in 0 W/m2
03:43 45.3 °F 41.4 °F 28.95 in West 27.0 mph 42.0 mph 86 % 0.01 in 0 W/m2
03:48 44.8 °F 41.1 °F 28.96 in West 24.0 mph 33.0 mph 87 % 0.01 in 0 W/m2
03:53 44.4 °F 40.8 °F 28.97 in West 22.0 mph 32.0 mph 87 % 0.01 in 0 W/m2
03:58 44.1 °F 40.4 °F 28.97 in West 23.0 mph 39.0 mph 87 % 0.01 in 0 W/m2
04:03 43.5 °F 40.5 °F 28.98 in West 20.0 mph 33.0 mph 89 % 0.01 in 0 W/m2
04:08 43.3 °F 40.3 °F 28.98 in West 22.0 mph 35.0 mph 89 % 0.01 in 0 W/m2
04:13 43.3 °F 40.6 °F 28.98 in West 22.0 mph 30.0 mph 90 % 0.01 in 0 W/m2
04:18 43.2 °F 40.4 °F 29.02 in WNW 25.0 mph 34.0 mph 90 % 0.00 in 0 W/m2
04:23 40.5 °F 36.9 °F 29.05 in NW 12.0 mph 19.0 mph 87 % 0.01 in 0 W/m2
04:28 38.8 °F 35.6 °F 29.07 in NW 15.0 mph 27.0 mph 88 % 0.01 in 0 W/m2
04:33 37.4 °F 34.7 °F 29.09 in NW 13.0 mph 24.0 mph 90 % 0.01 in 0 W/m2
04:39 36.9 °F 34.5 °F 29.11 in NW 15.0 mph 25.0 mph 91 % 0.01 in 0 W/m2
04:44 36.5 °F 34.1 °F 29.13 in WNW 17.0 mph 27.0 mph 91 % 0.01 in 0 W/m2
04:49 36.3 °F 34.2 °F 29.14 in WNW 15.0 mph 26.0 mph 92 % 0.01 in 0 W/m2
04:54 36.3 °F 34.2 °F 29.16 in WNW 14.0 mph 25.0 mph 92 % 0.01 in 0 W/m2
04:59 36.3 °F 34.2 °F 29.18 in WNW 11.0 mph 15.0 mph 92 % 0.01 in 0 W/m2
05:04 36.5 °F 34.4 °F 29.20 in WNW 13.0 mph 24.0 mph 92 % 0.01 in 0 W/m2
05:09 36.5 °F 34.4 °F 29.21 in NW 17.0 mph 29.0 mph 92 % 0.01 in 0 W/m2
05:14 36.7 °F 34.6 °F 29.22 in NW 14.0 mph 28.0 mph 92 % 0.01 in 0 W/m2
05:19 36.7 °F 34.3 °F 29.24 in NW 12.0 mph 20.0 mph 91 % 0.00 in 0 W/m2
05:24 36.7 °F 34.3 °F 29.25 in NW 14.0 mph 24.0 mph 91 % 0.00 in 0 W/m2
05:29 36.9 °F 34.5 °F 29.26 in WNW 13.0 mph 26.0 mph 91 % 0.00 in 0 W/m2
05:34 36.9 °F 34.2 °F 29.27 in NW 14.0 mph 21.0 mph 90 % 0.00 in 0 W/m2
05:39 36.9 °F 34.2 °F 29.27 in WNW 11.0 mph 16.0 mph 90 % 0.00 in 0 W/m2
05:44 36.9 °F 34.2 °F 29.29 in WNW 10.0 mph 14.0 mph 90 % 0.00 in 0 W/m2
05:49 36.9 °F 34.2 °F 29.29 in NW 9.0 mph 16.0 mph 90 % 0.00 in 0 W/m2
05:54 36.9 °F 34.2 °F 29.30 in WNW 9.0 mph 14.0 mph 90 % 0.00 in 0 W/m2
05:59 36.9 °F 34.2 °F 29.31 in WNW 11.0 mph 16.0 mph 90 % 0.00 in 0 W/m2
06:04 36.9 °F 34.2 °F 29.31 in WNW 9.0 mph 15.0 mph 90 % 0.00 in 0 W/m2
06:09 36.7 °F 34.0 °F 29.32 in WNW 12.0 mph 20.0 mph 90 % 0.00 in 0 W/m2
06:14 36.7 °F 34.0 °F 29.32 in WNW 10.0 mph 14.0 mph 90 % 0.00 in 0 W/m2
06:19 36.7 °F 34.0 °F 29.33 in WNW 11.0 mph 18.0 mph 90 % 0.00 in 0 W/m2
06:24 36.7 °F 34.0 °F 29.33 in WNW 11.0 mph 21.0 mph 90 % 0.00 in 0 W/m2
06:29 36.7 °F 34.0 °F 29.34 in WNW 8.0 mph 15.0 mph 90 % 0.00 in 0 W/m2
06:34 36.5 °F 33.8 °F 29.34 in WNW 11.0 mph 19.0 mph 90 % 0.00 in 0 W/m2
06:39 36.5 °F 33.8 °F 29.35 in WNW 14.0 mph 23.0 mph 90 % 0.00 in 0 W/m2
06:44 36.5 °F 33.8 °F 29.35 in WNW 10.0 mph 16.0 mph 90 % 0.00 in 0 W/m2
06:49 36.3 °F 33.7 °F 29.36 in WNW 12.0 mph 18.0 mph 90 % 0.00 in 0 W/m2
06:54 36.3 °F 33.7 °F 29.36 in WNW 12.0 mph 20.0 mph 90 % 0.00 in 0 W/m2
06:59 36.3 °F 33.7 °F 29.37 in WNW 9.0 mph 24.0 mph 90 % 0.00 in 0 W/m2
07:04 36.1 °F 33.5 °F 29.37 in WNW 11.0 mph 20.0 mph 90 % 0.00 in 0 W/m2
07:09 36.1 °F 33.5 °F 29.38 in WNW 12.0 mph 16.0 mph 90 % 0.00 in 0 W/m2
07:14 36.1 °F 33.5 °F 29.38 in WNW 11.0 mph 18.0 mph 90 % 0.00 in 0 W/m2
07:19 36.1 °F 33.5 °F 29.38 in WNW 12.0 mph 16.0 mph 90 % 0.00 in 0 W/m2
07:24 36.1 °F 33.5 °F 29.38 in WNW 12.0 mph 21.0 mph 90 % 0.00 in 0 W/m2
07:29 36.0 °F 33.3 °F 29.39 in WNW 13.0 mph 20.0 mph 90 % 0.00 in 0 W/m2
07:35 36.0 °F 33.3 °F 29.39 in WNW 11.0 mph 16.0 mph 90 % 0.00 in 0 W/m2
07:40 36.0 °F 33.3 °F 29.39 in West 11.0 mph 15.0 mph 90 % 0.00 in 0 W/m2
07:45 36.0 °F 33.3 °F 29.39 in West 11.0 mph 19.0 mph 90 % 0.00 in 0 W/m2
07:50 36.0 °F 33.3 °F 29.40 in WNW 10.0 mph 14.0 mph 90 % 0.00 in 0 W/m2
07:55 36.0 °F 33.3 °F 29.40 in WNW 10.0 mph 14.0 mph 90 % 0.00 in 0 W/m2
08:00 36.1 °F 33.5 °F 29.40 in WNW 7.0 mph 12.0 mph 90 % 0.00 in 0 W/m2
08:05 36.0 °F 33.3 °F 29.41 in WNW 12.0 mph 16.0 mph 90 % 0.00 in 5 W/m2
08:10 36.1 °F 33.5 °F 29.42 in West 11.0 mph 16.0 mph 90 % 0.00 in 5 W/m2
08:15 36.3 °F 33.7 °F 29.42 in West 11.0 mph 18.0 mph 90 % 0.00 in 7 W/m2
08:20 36.3 °F 33.7 °F 29.42 in WNW 9.0 mph 13.0 mph 90 % 0.00 in 9 W/m2
08:25 36.3 °F 33.7 °F 29.43 in WNW 11.0 mph 15.0 mph 90 % 0.00 in 11 W/m2
08:30 36.3 °F 33.7 °F 29.43 in WNW 8.0 mph 14.0 mph 90 % 0.00 in 12 W/m2
08:35 36.3 °F 33.7 °F 29.43 in WNW 10.0 mph 13.0 mph 90 % 0.00 in 14 W/m2
08:40 36.3 °F 33.7 °F 29.43 in WNW 8.0 mph 11.0 mph 90 % 0.00 in 16 W/m2
08:45 36.5 °F 33.8 °F 29.43 in WNW 7.0 mph 12.0 mph 90 % 0.00 in 18 W/m2
08:50 36.5 °F 33.8 °F 29.44 in WNW 6.0 mph 11.0 mph 90 % 0.00 in 18 W/m2
08:55 36.7 °F 34.0 °F 29.44 in WNW 10.0 mph 14.0 mph 90 % 0.00 in 21 W/m2
09:00 36.7 °F 34.0 °F 29.45 in West 8.0 mph 14.0 mph 90 % 0.00 in 26 W/m2
09:05 36.9 °F 34.2 °F 29.45 in WNW 8.0 mph 13.0 mph 90 % 0.00 in 28 W/m2
09:10 37.0 °F 34.4 °F 29.45 in WNW 7.0 mph 12.0 mph 90 % 0.00 in 49 W/m2
09:15 37.2 °F 34.6 °F 29.45 in WNW 9.0 mph 15.0 mph 90 % 0.00 in 46 W/m2
09:20 37.4 °F 34.7 °F 29.45 in West 9.0 mph 12.0 mph 90 % 0.00 in 58 W/m2
09:25 37.6 °F 34.9 °F 29.46 in West 8.0 mph 11.0 mph 90 % 0.00 in 35 W/m2
09:30 37.8 °F 35.1 °F 29.46 in WSW 5.0 mph 8.0 mph 90 % 0.00 in 30 W/m2
09:36 37.8 °F 35.1 °F 29.47 in WNW 7.0 mph 13.0 mph 90 % 0.00 in 46 W/m2
09:41 37.9 °F 35.3 °F 29.47 in West 8.0 mph 13.0 mph 90 % 0.00 in 176 W/m2
09:46 38.3 °F 35.6 °F 29.46 in West 9.0 mph 13.0 mph 90 % 0.00 in 65 W/m2
09:51 38.5 °F 35.5 °F 29.46 in WNW 6.0 mph 11.0 mph 89 % 0.00 in 169 W/m2
09:56 38.8 °F 35.9 °F 29.47 in WNW 3.0 mph 7.0 mph 89 % 0.00 in 76 W/m2
10:01 39.0 °F 36.1 °F 29.47 in WNW 2.0 mph 6.0 mph 89 % 0.00 in 91 W/m2
10:06 39.2 °F 36.2 °F 29.47 in WNW 2.0 mph 6.0 mph 89 % 0.00 in 81 W/m2
10:11 39.4 °F 36.4 °F 29.47 in NNW 1.0 mph 4.0 mph 89 % 0.00 in 47 W/m2
10:16 39.4 °F 36.1 °F 29.47 in Calm     88 % 0.00 in 79 W/m2
10:21 39.4 °F 36.1 °F 29.48 in SW 3.0 mph 7.0 mph 88 % 0.00 in 95 W/m2
10:26 39.4 °F 36.1 °F 29.48 in West 2.0 mph 4.0 mph 88 % 0.00 in 54 W/m2
10:31 39.4 °F 36.1 °F 29.48 in Calm   3.0 mph 88 % 0.00 in 188 W/m2
10:36 39.6 °F 36.3 °F 29.48 in WNW 1.0 mph 5.0 mph 88 % 0.00 in 97 W/m2
10:41 39.6 °F 36.3 °F 29.48 in WNW 1.0 mph 5.0 mph 88 % 0.00 in 95 W/m2
10:46 39.9 °F 36.9 °F 29.48 in Calm   1.0 mph 89 % 0.00 in 309 W/m2
10:51 40.5 °F 37.2 °F 29.48 in WSW 3.0 mph 5.0 mph 88 % 0.00 in 62 W/m2
10:56 40.6 °F 37.1 °F 29.48 in SW 2.0 mph 5.0 mph 87 % 0.00 in 123 W/m2
11:01 40.6 °F 37.1 °F 29.49 in SW 6.0 mph 10.0 mph 87 % 0.00 in 62 W/m2
11:06 40.5 °F 36.9 °F 29.49 in WSW 5.0 mph 9.0 mph 87 % 0.00 in 42 W/m2
11:11 40.3 °F 36.7 °F 29.49 in WSW 5.0 mph 10.0 mph 87 % 0.00 in 65 W/m2
11:16 40.3 °F 37.0 °F 29.49 in West 6.0 mph 10.0 mph 88 % 0.00 in 97 W/m2
11:21 40.3 °F 37.0 °F 29.49 in West 4.0 mph 7.0 mph 88 % 0.00 in 77 W/m2
11:26 40.3 °F 37.0 °F 29.49 in West 3.0 mph 7.0 mph 88 % 0.00 in 84 W/m2
11:31 40.3 °F 37.3 °F 29.49 in WSW 3.0 mph 7.0 mph 89 % 0.00 in 109 W/m2
11:36 40.3 °F 37.3 °F 29.49 in West 4.0 mph 8.0 mph 89 % 0.00 in 65 W/m2
11:41 40.5 °F 37.5 °F 29.49 in WSW 4.0 mph 7.0 mph 89 % 0.00 in 49 W/m2
11:46 40.5 °F 37.5 °F 29.49 in West 5.0 mph 9.0 mph 89 % 0.00 in 28 W/m2
11:51 40.5 °F 37.5 °F 29.49 in West 2.0 mph 5.0 mph 89 % 0.00 in 37 W/m2
11:56 40.6 °F 37.7 °F 29.49 in West 7.0 mph 11.0 mph 89 % 0.00 in 90 W/m2
12:01 40.6 °F 37.7 °F 29.49 in WSW 5.0 mph 8.0 mph 89 % 0.00 in 28 W/m2
12:06 40.6 °F 37.4 °F 29.49 in West 8.0 mph 14.0 mph 88 % 0.00 in 28 W/m2
12:11 40.6 °F 37.4 °F 29.49 in West 9.0 mph 13.0 mph 88 % 0.00 in 25 W/m2
12:16 40.5 °F 37.5 °F 29.49 in WSW 7.0 mph 13.0 mph 89 % 0.00 in 53 W/m2
12:21 40.3 °F 37.3 °F 29.49 in West 5.0 mph 8.0 mph 89 % 0.01 in 42 W/m2
12:26 40.1 °F 37.4 °F 29.49 in WNW 8.0 mph 11.0 mph 90 % 0.01 in 83 W/m2
12:31 39.9 °F 37.2 °F 29.49 in West 8.0 mph 13.0 mph 90 % 0.01 in 83 W/m2
12:36 39.7 °F 37.0 °F 29.49 in West 7.0 mph 11.0 mph 90 % 0.01 in 79 W/m2
12:41 39.7 °F 37.0 °F 29.49 in West 9.0 mph 12.0 mph 90 % 0.01 in 60 W/m2
12:46 39.6 °F 37.2 °F 29.49 in WNW 7.0 mph 10.0 mph 91 % 0.01 in 113 W/m2
12:51 39.6 °F 37.2 °F 29.49 in West 7.0 mph 12.0 mph 91 % 0.02 in 179 W/m2
12:56 39.7 °F 37.6 °F 29.49 in WNW 7.0 mph 9.0 mph 92 % 0.02 in 192 W/m2
13:02 39.9 °F 37.8 °F 29.49 in NW 4.0 mph 9.0 mph 92 % 0.02 in 100 W/m2
13:07 39.9 °F 37.8 °F 29.49 in WNW 6.0 mph 9.0 mph 92 % 0.02 in 42 W/m2
13:12 39.9 °F 37.8 °F 29.49 in WNW 2.0 mph 6.0 mph 92 % 0.02 in 39 W/m2
13:17 39.9 °F 37.8 °F 29.49 in NW 5.0 mph 8.0 mph 92 % 0.02 in 47 W/m2
13:22 39.7 °F 37.6 °F 29.50 in WNW 9.0 mph 15.0 mph 92 % 0.02 in 14 W/m2
13:27 39.6 °F 37.4 °F 29.49 in West 6.0 mph 11.0 mph 92 % 0.02 in 19 W/m2
13:32 39.4 °F 37.2 °F 29.49 in West 9.0 mph 13.0 mph 92 % 0.02 in 46 W/m2
13:37 39.0 °F 36.9 °F 29.49 in West 5.0 mph 8.0 mph 92 % 0.03 in 42 W/m2
13:42 39.0 °F 36.9 °F 29.49 in West 2.0 mph 5.0 mph 92 % 0.03 in 72 W/m2
13:47 39.0 °F 37.2 °F 29.49 in Calm   2.0 mph 93 % 0.02 in 83 W/m2
13:52 39.0 °F 37.2 °F 29.49 in Calm     93 % 0.02 in 44 W/m2
13:57 38.8 °F 37.0 °F 29.49 in Calm   1.0 mph 93 % 0.02 in 178 W/m2
14:02 39.0 °F 37.2 °F 29.49 in West 2.0 mph 4.0 mph 93 % 0.02 in 62 W/m2
14:07 38.8 °F 37.0 °F 29.49 in West 2.0 mph 6.0 mph 93 % 0.02 in 60 W/m2
14:12 38.8 °F 37.0 °F 29.50 in West 1.0 mph 4.0 mph 93 % 0.02 in 33 W/m2
14:17 38.7 °F 36.8 °F 29.50 in SSW 3.0 mph 5.0 mph 93 % 0.02 in 18 W/m2
14:22 38.5 °F 36.6 °F 29.50 in SW 3.0 mph 5.0 mph 93 % 0.02 in 25 W/m2
14:27 38.5 °F 36.6 °F 29.49 in WSW 7.0 mph 14.0 mph 93 % 0.01 in 47 W/m2
14:32 38.5 °F 36.6 °F 29.49 in West 2.0 mph 5.0 mph 93 % 0.01 in 26 W/m2
14:37 38.5 °F 36.6 °F 29.49 in West 4.0 mph 10.0 mph 93 % 0.00 in 32 W/m2
14:42 38.5 °F 36.6 °F 29.50 in West 7.0 mph 12.0 mph 93 % 0.00 in 44 W/m2
14:47 38.5 °F 36.6 °F 29.49 in West 4.0 mph 7.0 mph 93 % 0.00 in 56 W/m2
14:52 38.3 °F 36.5 °F 29.50 in West 4.0 mph 7.0 mph 93 % 0.00 in 42 W/m2
14:57 38.3 °F 36.5 °F 29.50 in WSW 5.0 mph 8.0 mph 93 % 0.00 in 37 W/m2
15:02 38.3 °F 36.5 °F 29.50 in West 3.0 mph 6.0 mph 93 % 0.00 in 40 W/m2
15:07 38.3 °F 36.5 °F 29.50 in West 6.0 mph 9.0 mph 93 % 0.00 in 35 W/m2
15:12 38.1 °F 36.3 °F 29.50 in West 5.0 mph 8.0 mph 93 % 0.00 in 32 W/m2
15:17 38.1 °F 36.3 °F 29.50 in West 5.0 mph 8.0 mph 93 % 0.00 in 30 W/m2
15:22 38.1 °F 36.3 °F 29.50 in West 8.0 mph 11.0 mph 93 % 0.00 in 23 W/m2
15:27 38.1 °F 36.3 °F 29.50 in West 8.0 mph 10.0 mph 93 % 0.00 in 16 W/m2
15:33 38.1 °F 36.3 °F 29.50 in WSW 7.0 mph 10.0 mph 93 % 0.00 in 14 W/m2
15:38 38.1 °F 36.3 °F 29.51 in West 6.0 mph 10.0 mph 93 % 0.00 in 14 W/m2
15:43 38.1 °F 36.3 °F 29.51 in West 6.0 mph 9.0 mph 93 % 0.00 in 12 W/m2
15:48 38.1 °F 36.3 °F 29.50 in West 4.0 mph 8.0 mph 93 % 0.00 in 12 W/m2
15:53 37.9 °F 35.8 °F 29.51 in West 5.0 mph 8.0 mph 92 % 0.00 in 11 W/m2
15:58 37.8 °F 35.6 °F 29.51 in West 4.0 mph 8.0 mph 92 % 0.00 in 11 W/m2
16:03 37.6 °F 35.5 °F 29.51 in West 6.0 mph 9.0 mph 92 % 0.00 in 9 W/m2
16:08 37.4 °F 35.6 °F 29.51 in WNW 4.0 mph 7.0 mph 93 % 0.00 in 7 W/m2
16:13 37.4 °F 35.6 °F 29.51 in West 4.0 mph 7.0 mph 93 % 0.00 in 5 W/m2
16:18 37.6 °F 35.7 °F 29.52 in West 4.0 mph 7.0 mph 93 % 0.00 in 0 W/m2
16:23 37.6 °F 35.7 °F 29.52 in WNW 4.0 mph 7.0 mph 93 % 0.00 in 0 W/m2
16:28 37.6 °F 35.7 °F 29.52 in WNW 4.0 mph 6.0 mph 93 % 0.00 in 0 W/m2
16:33 37.6 °F 35.7 °F 29.52 in West 4.0 mph 8.0 mph 93 % 0.00 in 0 W/m2
16:38 37.6 °F 35.7 °F 29.52 in West 2.0 mph 6.0 mph 93 % 0.00 in 0 W/m2
16:43 37.4 °F 35.6 °F 29.52 in WNW 4.0 mph 6.0 mph 93 % 0.00 in 0 W/m2
16:48 37.2 °F 35.4 °F 29.52 in WNW 5.0 mph 8.0 mph 93 % 0.00 in 0 W/m2
16:53 37.2 °F 35.4 °F 29.52 in WNW 4.0 mph 8.0 mph 93 % 0.00 in 0 W/m2
16:58 37.2 °F 35.4 °F 29.52 in WNW 7.0 mph 9.0 mph 93 % 0.00 in 0 W/m2
17:03 37.2 °F 35.4 °F 29.52 in WNW 8.0 mph 12.0 mph 93 % 0.00 in 0 W/m2
17:08 37.2 °F 35.4 °F 29.52 in WNW 6.0 mph 10.0 mph 93 % 0.00 in 0 W/m2
17:13 37.4 °F 35.8 °F 29.53 in WNW 7.0 mph 11.0 mph 94 % 0.00 in 0 W/m2
17:18 37.6 °F 36.0 °F 29.53 in WNW 5.0 mph 8.0 mph 94 % 0.00 in 0 W/m2
17:23 37.6 °F 36.0 °F 29.53 in WNW 4.0 mph 7.0 mph 94 % 0.00 in 0 W/m2
17:28 37.8 °F 36.2 °F 29.53 in WNW 7.0 mph 15.0 mph 94 % 0.01 in 0 W/m2
17:33 37.8 °F 36.2 °F 29.54 in WNW 7.0 mph 11.0 mph 94 % 0.01 in 0 W/m2
17:38 37.8 °F 35.9 °F 29.54 in WNW 8.0 mph 12.0 mph 93 % 0.01 in 0 W/m2
17:43 37.8 °F 35.9 °F 29.54 in West 9.0 mph 14.0 mph 93 % 0.01 in 0 W/m2
17:48 37.6 °F 35.7 °F 29.54 in WNW 9.0 mph 13.0 mph 93 % 0.01 in 0 W/m2
17:53 37.6 °F 35.7 °F 29.55 in West 8.0 mph 15.0 mph 93 % 0.01 in 0 W/m2
17:58 37.2 °F 35.4 °F 29.55 in West 7.0 mph 10.0 mph 93 % 0.01 in 0 W/m2
18:03 37.0 °F 35.2 °F 29.55 in West 7.0 mph 10.0 mph 93 % 0.01 in 0 W/m2
18:08 37.0 °F 35.2 °F 29.55 in WNW 5.0 mph 7.0 mph 93 % 0.01 in 0 W/m2
18:13 36.9 °F 35.0 °F 29.55 in WNW 6.0 mph 9.0 mph 93 % 0.01 in 0 W/m2
18:19 36.9 °F 35.3 °F 29.55 in WNW 6.0 mph 9.0 mph 94 % 0.01 in 0 W/m2
18:24 36.9 °F 35.3 °F 29.55 in WNW 7.0 mph 10.0 mph 94 % 0.00 in 0 W/m2
18:29 36.9 °F 35.3 °F 29.55 in WNW 8.0 mph 12.0 mph 94 % 0.00 in 0 W/m2
18:34 36.9 °F 35.3 °F 29.55 in WNW 7.0 mph 10.0 mph 94 % 0.00 in 0 W/m2
18:39 36.9 °F 35.3 °F 29.55 in WNW 7.0 mph 10.0 mph 94 % 0.00 in 0 W/m2
18:44 36.9 °F 35.3 °F 29.55 in West 5.0 mph 7.0 mph 94 % 0.00 in 0 W/m2
18:49 36.7 °F 35.1 °F 29.55 in WSW 4.0 mph 6.0 mph 94 % 0.00 in 0 W/m2
18:54 36.7 °F 35.1 °F 29.55 in WSW 2.0 mph 5.0 mph 94 % 0.00 in 0 W/m2
18:59 36.3 °F 34.5 °F 29.56 in West 2.0 mph 5.0 mph 93 % 0.00 in 0 W/m2
19:04 36.1 °F 34.3 °F 29.56 in WNW 3.0 mph 6.0 mph 93 % 0.00 in 0 W/m2
19:09 36.1 °F 34.3 °F 29.56 in WNW 4.0 mph 6.0 mph 93 % 0.00 in 0 W/m2
19:14 36.1 °F 34.6 °F 29.57 in West 5.0 mph 7.0 mph 94 % 0.00 in 0 W/m2
19:19 36.1 °F 34.6 °F 29.57 in West 3.0 mph 6.0 mph 94 % 0.00 in 0 W/m2
19:24 36.1 °F 34.6 °F 29.56 in WSW 5.0 mph 8.0 mph 94 % 0.00 in 0 W/m2
19:29 36.3 °F 34.8 °F 29.57 in West 6.0 mph 9.0 mph 94 % 0.00 in 0 W/m2
19:34 36.7 °F 35.1 °F 29.57 in West 7.0 mph 11.0 mph 94 % 0.00 in 0 W/m2
19:39 36.9 °F 35.3 °F 29.57 in West 5.0 mph 10.0 mph 94 % 0.00 in 0 W/m2
19:44 36.9 °F 35.3 °F 29.57 in West 7.0 mph 10.0 mph 94 % 0.00 in 0 W/m2
19:49 37.0 °F 35.5 °F 29.57 in West 7.0 mph 10.0 mph 94 % 0.00 in 0 W/m2
19:54 36.9 °F 35.3 °F 29.57 in West 5.0 mph 8.0 mph 94 % 0.00 in 0 W/m2
19:59 36.9 °F 35.3 °F 29.57 in West 7.0 mph 9.0 mph 94 % 0.00 in 0 W/m2
20:04 36.9 °F 35.3 °F 29.58 in West 7.0 mph 13.0 mph 94 % 0.00 in 0 W/m2
20:09 36.9 °F 35.3 °F 29.58 in West 10.0 mph 14.0 mph 94 % 0.00 in 0 W/m2
20:14 36.7 °F 35.1 °F 29.58 in West 7.0 mph 10.0 mph 94 % 0.00 in 0 W/m2
20:19 36.7 °F 34.8 °F 29.58 in West 7.0 mph 11.0 mph 93 % 0.00 in 0 W/m2
20:24 36.5 °F 34.7 °F 29.58 in West 7.0 mph 10.0 mph 93 % 0.00 in 0 W/m2
20:29 36.5 °F 34.7 °F 29.58 in West 7.0 mph 10.0 mph 93 % 0.00 in 0 W/m2
20:34 36.5 °F 34.7 °F 29.58 in West 8.0 mph 12.0 mph 93 % 0.00 in 0 W/m2
20:39 36.5 °F 34.7 °F 29.59 in West 8.0 mph 13.0 mph 93 % 0.00 in 0 W/m2
20:44 36.5 °F 34.7 °F 29.59 in West 8.0 mph 12.0 mph 93 % 0.00 in 0 W/m2
20:50 36.5 °F 34.7 °F 29.59 in WNW 8.0 mph 12.0 mph 93 % 0.00 in 0 W/m2
20:55 36.7 °F 34.8 °F 29.59 in West 8.0 mph 11.0 mph 93 % 0.00 in 0 W/m2
21:00 36.7 °F 34.8 °F 29.59 in West 7.0 mph 10.0 mph 93 % 0.00 in 0 W/m2
21:05 36.7 °F 34.6 °F 29.59 in West 8.0 mph 11.0 mph 92 % 0.00 in 0 W/m2
21:10 36.5 °F 34.4 °F 29.59 in West 8.0 mph 11.0 mph 92 % 0.00 in 0 W/m2
21:15 36.5 °F 34.4 °F 29.59 in West 8.0 mph 11.0 mph 92 % 0.00 in 0 W/m2
21:20 36.5 °F 34.4 °F 29.59 in WNW 8.0 mph 11.0 mph 92 % 0.00 in 0 W/m2
21:25 36.5 °F 34.4 °F 29.59 in WNW 9.0 mph 14.0 mph 92 % 0.00 in 0 W/m2
21:30 36.7 °F 34.6 °F 29.59 in WNW 9.0 mph 14.0 mph 92 % 0.00 in 0 W/m2
21:35 36.7 °F 34.6 °F 29.59 in West 9.0 mph 12.0 mph 92 % 0.00 in 0 W/m2
21:40 36.7 °F 34.6 °F 29.59 in West 8.0 mph 16.0 mph 92 % 0.00 in 0 W/m2
21:45 36.9 °F 34.8 °F 29.59 in West 9.0 mph 13.0 mph 92 % 0.00 in 0 W/m2
21:50 36.9 °F 34.5 °F 29.59 in West 8.0 mph 12.0 mph 91 % 0.00 in 0 W/m2
21:55 36.9 °F 34.5 °F 29.59 in West 9.0 mph 15.0 mph 91 % 0.00 in 0 W/m2
22:00 36.7 °F 34.3 °F 29.59 in WNW 8.0 mph 11.0 mph 91 % 0.00 in 0 W/m2
22:05 36.7 °F 34.3 °F 29.59 in WNW 10.0 mph 15.0 mph 91 % 0.00 in 0 W/m2
22:10 36.7 °F 34.3 °F 29.59 in WNW 9.0 mph 12.0 mph 91 % 0.00 in 0 W/m2
22:15 36.7 °F 34.3 °F 29.59 in WNW 10.0 mph 15.0 mph 91 % 0.00 in 0 W/m2
22:20 36.7 °F 34.3 °F 29.59 in WNW 8.0 mph 12.0 mph 91 % 0.00 in 0 W/m2
22:25 36.5 °F 34.1 °F 29.60 in WNW 8.0 mph 13.0 mph 91 % 0.00 in 0 W/m2
22:30 36.5 °F 34.1 °F 29.60 in WNW 13.0 mph 19.0 mph 91 % 0.00 in 0 W/m2
22:35 36.7 °F 34.3 °F 29.60 in WNW 11.0 mph 19.0 mph 91 % 0.00 in 0 W/m2
22:40 36.7 °F 34.3 °F 29.60 in WNW 9.0 mph 14.0 mph 91 % 0.00 in 0 W/m2
22:45 36.5 °F 33.8 °F 29.60 in WNW 9.0 mph 15.0 mph 90 % 0.00 in 0 W/m2
22:50 36.3 °F 33.7 °F 29.60 in West 8.0 mph 13.0 mph 90 % 0.00 in 0 W/m2
22:55 36.3 °F 33.7 °F 29.61 in West 7.0 mph 13.0 mph 90 % 0.00 in 0 W/m2
23:00 36.3 °F 33.7 °F 29.61 in WNW 9.0 mph 13.0 mph 90 % 0.00 in 0 W/m2
23:05 36.3 °F 33.9 °F 29.61 in WNW 9.0 mph 15.0 mph 91 % 0.00 in 0 W/m2
23:10 36.3 °F 33.9 °F 29.61 in WNW 8.0 mph 16.0 mph 91 % 0.00 in 0 W/m2
23:15 36.3 °F 33.9 °F 29.61 in WNW 9.0 mph 12.0 mph 91 % 0.00 in 0 W/m2
23:20 36.3 °F 33.9 °F 29.61 in WNW 8.0 mph 16.0 mph 91 % 0.00 in 0 W/m2
23:25 36.3 °F 33.9 °F 29.61 in WNW 8.0 mph 12.0 mph 91 % 0.00 in 0 W/m2
23:30 36.3 °F 33.9 °F 29.61 in WNW 9.0 mph 16.0 mph 91 % 0.00 in 0 W/m2
23:35 36.3 °F 33.9 °F 29.61 in WNW 10.0 mph 15.0 mph 91 % 0.00 in 0 W/m2
23:40 36.5 °F 34.1 °F 29.61 in WNW 8.0 mph 11.0 mph 91 % 0.00 in 0 W/m2
23:45 36.5 °F 34.1 °F 29.61 in WNW 7.0 mph 13.0 mph 91 % 0.00 in 0 W/m2
23:50 36.3 °F 33.9 °F 29.62 in WNW 6.0 mph 9.0 mph 91 % 0.00 in 0 W/m2
23:55 36.1 °F 33.5 °F 29.62 in WNW 6.0 mph 10.0 mph 90 % 0.00 in 0 W/m2
Delerius-Weather
Compliments of Weather Underground - 2.25 mb

Data updates at regular intervals.